»·PEaware :: COA1424 KIAH-MMMX

COA1424 :: KIAH-MMMX

FLIGHT INFORMATION

Flight Status: Arrived
Operator:
Continental Air Lines
More flights by this operator :: More flights under this callsign
Pilot: Robby H. (353)
Aircraft: BOEING 767-200
(B762)
More flights by this aircraft type
Origin: KIAH G Bush Intercontinental/Houst
United States
Destination: MMMX Lic Benito Juarez Intl
Mexico
More flights between these airports :: More routes between these airports
Route: DIRECT
File this flight plan on PilotEdge
Remarks: / V /
Altitude:
(Current/Filed)
34,000ft
Speed:
(Current/Filed)
532kts
Departed: 31-Dec-11 04:38 PM
Arrived: 31-Dec-11 06:16 PM
Distance/Time
Traveled:
665nm/1:38
Distance/Time
To Go:
Arrived

Flight Plot

Page will automatically refresh every two minutes.


Map Options




Map Legend


Flown Route
Filed Route
Departure Airport
Arrival Airport
Navaid (VOR, NDB)
Fix

Horizontal Profiles

Position Reports

Time Latitude Longitude Heading Altitude Ground
Speed
31-Dec-11 16:32 29.988036 -95.336653 209 110ft 0kts
31-Dec-11 16:33 29.985187 -95.334365 314 110ft 0kts
31-Dec-11 16:34 29.985136 -95.334306 314 109ft 2kts
31-Dec-11 16:35 29.984688 -95.333908 258 109ft 4kts
31-Dec-11 16:36 29.980628 -95.333856 179 109ft 28kts
31-Dec-11 16:37 29.977737 -95.320994 89 110ft 151kts
31-Dec-11 16:38 29.967997 -95.258731 147 1287ft 227kts
31-Dec-11 16:39 29.894160 -95.270757 193 3323ft 335kts
31-Dec-11 16:40 29.804940 -95.295759 194 4998ft 360kts
31-Dec-11 16:41 29.711203 -95.321971 193 6686ft 371kts
31-Dec-11 16:42 29.612847 -95.349244 196 8441ft 380kts
31-Dec-11 16:42 29.525405 -95.373430 196 9948ft 392kts
31-Dec-11 16:43 29.418470 -95.402935 195 11739ft 403kts
31-Dec-11 16:45 29.192845 -95.464899 195 15362ft 426kts
31-Dec-11 16:47 29.077133 -95.496579 195 17146ft 437kts
31-Dec-11 16:48 28.956376 -95.529642 195 18964ft 449kts
31-Dec-11 16:49 28.834319 -95.568631 210 20474ft 458kts
31-Dec-11 16:50 28.749153 -95.674555 236 21480ft 457kts
31-Dec-11 16:51 28.675208 -95.794193 235 22485ft 464kts
31-Dec-11 16:52 28.599019 -95.912394 235 23482ft 471kts
31-Dec-11 16:53 28.520111 -96.033582 235 24486ft 478kts
31-Dec-11 16:54 28.440450 -96.155650 235 25484ft 485kts
31-Dec-11 16:55 28.358910 -96.280241 235 26491ft 492kts
31-Dec-11 16:56 28.276757 -96.405448 236 27487ft 496kts
31-Dec-11 16:57 28.190640 -96.528436 224 28385ft 502kts
31-Dec-11 16:58 28.074921 -96.618921 216 29452ft 504kts
31-Dec-11 16:59 27.957024 -96.704350 214 30448ft 478kts
31-Dec-11 17:00 27.846695 -96.783902 215 31428ft 471kts
31-Dec-11 17:01 27.736990 -96.862846 215 32414ft 465kts
31-Dec-11 17:02 27.627822 -96.941203 215 33410ft 456kts
31-Dec-11 17:03 27.521787 -97.017155 215 33987ft 456kts
31-Dec-11 17:04 27.414204 -97.094187 215 33984ft 459kts
31-Dec-11 17:05 27.306415 -97.171060 215 33983ft 459kts
31-Dec-11 17:06 27.196380 -97.248405 212 33971ft 460kts
31-Dec-11 17:07 27.076499 -97.300922 198 33985ft 468kts
31-Dec-11 17:08 26.947992 -97.325563 190 33984ft 473kts
31-Dec-11 17:09 26.814440 -97.335114 187 33994ft 481kts
31-Dec-11 17:10 26.680354 -97.341073 182 34003ft 485kts
31-Dec-11 17:11 26.546132 -97.347067 187 33987ft 477kts
31-Dec-11 17:12 26.414171 -97.353125 186 34008ft 480kts
31-Dec-11 17:13 26.281257 -97.359134 182 34006ft 479kts
31-Dec-11 17:14 26.146145 -97.365206 187 33994ft 479kts
31-Dec-11 17:15 26.014323 -97.371520 185 33988ft 477kts
31-Dec-11 17:16 25.894591 -97.424746 215 33991ft 464kts
31-Dec-11 17:17 25.783487 -97.501356 211 34000ft 462kts
31-Dec-11 17:18 25.666929 -97.558347 203 34019ft 462kts
31-Dec-11 17:19 25.544131 -97.604249 201 34019ft 464kts
31-Dec-11 17:20 25.420843 -97.647657 201 34013ft 464kts
31-Dec-11 17:21 25.297024 -97.691214 201 34007ft 465kts
31-Dec-11 17:22 25.174245 -97.734411 201 34003ft 466kts
31-Dec-11 17:23 25.049311 -97.778276 201 34004ft 467kts
31-Dec-11 17:24 24.924731 -97.821884 200 33999ft 468kts
31-Dec-11 17:25 24.799500 -97.865614 201 33996ft 471kts
31-Dec-11 17:27 24.546386 -97.953718 201 33986ft 476kts
31-Dec-11 17:28 24.419882 -97.997609 201 33985ft 475kts
31-Dec-11 17:29 24.296419 -98.040394 201 33979ft 475kts
31-Dec-11 17:30 24.167550 -98.084983 201 33978ft 475kts
31-Dec-11 17:31 24.040375 -98.128913 201 33976ft 475kts
31-Dec-11 17:32 23.915272 -98.171927 201 33971ft 475kts
31-Dec-11 17:33 23.791167 -98.214544 201 33972ft 474kts
31-Dec-11 17:34 23.661948 -98.258905 201 33971ft 474kts
31-Dec-11 17:35 23.536274 -98.301971 201 33968ft 474kts
31-Dec-11 17:35 23.430092 -98.338192 201 33967ft 474kts
31-Dec-11 17:37 23.283342 -98.388210 201 33969ft 474kts
31-Dec-11 17:37 23.178086 -98.424015 201 33971ft 474kts
31-Dec-11 17:38 23.051751 -98.466817 201 33969ft 474kts
31-Dec-11 17:39 22.925191 -98.509667 201 33969ft 474kts
31-Dec-11 17:40 22.804388 -98.550504 201 33968ft 474kts
31-Dec-11 17:41 22.677144 -98.593414 201 33971ft 474kts
31-Dec-11 17:43 22.551217 -98.635853 201 33972ft 475kts
31-Dec-11 17:44 22.424617 -98.678326 200 33984ft 478kts
31-Dec-11 17:45 22.297945 -98.720781 200 33998ft 477kts
31-Dec-11 17:46 22.173257 -98.771399 200 34000ft 478kts
31-Dec-11 17:47 22.042908 -98.803705 192 33988ft 482kts
31-Dec-11 17:48 21.908897 -98.820484 188 33989ft 484kts
31-Dec-11 17:49 21.774473 -98.833547 188 34024ft 487kts
31-Dec-11 17:50 21.638828 -98.846866 188 34034ft 487kts
31-Dec-11 17:51 21.503725 -98.860187 188 34045ft 488kts
31-Dec-11 17:52 21.368330 -98.873463 188 34045ft 488kts
31-Dec-11 17:53 21.233137 -98.886706 188 34051ft 489kts
31-Dec-11 17:54 21.097795 -98.899964 188 34062ft 489kts
31-Dec-11 17:55 20.983743 -98.911167 188 34017ft 492kts
31-Dec-11 17:56 20.845977 -98.924660 187 31530ft 498kts
31-Dec-11 17:57 20.708048 -98.937945 187 28972ft 505kts
31-Dec-11 17:58 20.566763 -98.951481 186 26375ft 505kts
31-Dec-11 17:59 20.429457 -98.964582 185 23782ft 486kts
31-Dec-11 18:00 20.296974 -98.977184 185 21175ft 467kts
31-Dec-11 18:01 20.171328 -98.989125 185 18605ft 451kts
31-Dec-11 18:02 20.047832 -99.000853 184 15985ft 435kts
31-Dec-11 18:03 19.929233 -99.012123 184 14103ft 424kts
31-Dec-11 18:04 19.811382 -99.023236 184 14043ft 423kts
31-Dec-11 18:05 19.701167 -98.988322 151 14037ft 421kts
31-Dec-11 18:06 19.603742 -98.923319 144 13979ft 398kts
31-Dec-11 18:07 19.571373 -98.905110 162 13694ft 374kts
31-Dec-11 18:08 19.571373 -98.905110 162 13694ft 374kts
31-Dec-11 18:09 19.571373 -98.905110 162 13694ft 374kts
31-Dec-11 18:10 19.571373 -98.905110 162 13694ft 374kts
31-Dec-11 18:11 19.539386 -98.903111 188 13267ft 356kts
31-Dec-11 18:12 19.480108 -98.968737 244 11609ft 256kts
31-Dec-11 18:13 19.455580 -99.030481 245 8360ft 199kts
31-Dec-11 18:14 19.434337 -99.072602 242 7329ft 99kts
31-Dec-11 18:15 19.431779 -99.079961 267 7328ft 0kts

Navigation Log

Ident Type
Flight plan parsing failed, navigation log unavailable